Time;durP1;ratioP1;P1;durP2;ratioP2;P2;SDS_P1;SDS_P2;PMS_P1;PMS_P2;Temp;Humidity;BMP_temperature;BMP_pressure;BME280_temperature;BME280_humidity;BME280_pressure;Samples;Min_cycle;Max_cycle;Signal;HPM_P1;HPM_P2
2023/04/02 00:00:23;;;;;;;;;;;;;;;8.95;100.00;99352.09;5610186;31;34279;-67
2023/04/02 00:03:52;;;;;;;;;;;;;;;9.01;100.00;99356.62;5610268;31;34207;-67
2023/04/02 00:07:29;;;;;;;;;;;;;;;9.06;100.00;99364.03;5609510;31;34637;-67
2023/04/02 00:10:35;;;;;;;;;;;;;;;9.15;100.00;99361.09;5610169;31;34959;-67
2023/04/02 00:13:45;;;;;;;;;;;;;;;9.20;100.00;99371.13;5607994;31;34893;-67
2023/04/02 00:16:51;;;;;;;;;;;;;;;9.03;100.00;99374.97;5610106;31;34315;-67
2023/04/02 00:19:59;;;;;;;;;;;;;;;8.87;100.00;99377.78;5610167;31;34322;-68
2023/04/02 00:23:13;;;;;;;;;;;;;;;8.86;100.00;99376.97;5609966;31;34803;-67
2023/04/02 00:26:42;;;;;;;;;;;;;;;8.75;100.00;99379.25;5609952;31;34189;-68
2023/04/02 00:29:53;;;;;;;;;;;;;;;9.00;100.00;99385.94;5609902;31;35126;-67
2023/04/02 00:33:02;;;;;;;;;;;;;;;9.04;100.00;99380.09;5609886;31;34599;-67
2023/04/02 00:36:18;;;;;;;;;;;;;;;9.10;100.00;99378.56;5609210;31;33643;-67
2023/04/02 00:39:29;;;;;;;;;;;;;;;9.14;100.00;99377.19;5609877;31;34429;-68
2023/04/02 00:42:39;;;;;;;;;;;;;;;9.22;100.00;99378.91;5609999;31;34568;-67
2023/04/02 00:45:51;;;;;;;;;;;;;;;9.10;100.00;99375.91;5609723;31;35532;-67
2023/04/02 00:49:07;;;;;;;;;;;;;;;9.08;100.00;99381.38;5609936;31;34230;-68
2023/04/02 00:52:20;;;;;;;;;;;;;;;9.01;100.00;99382.25;5609822;31;34621;-67
2023/04/02 00:55:33;;;;;;;;;;;;;;;9.00;100.00;99383.28;5609722;31;34212;-67
2023/04/02 00:58:42;;;;;;;;;;;;;;;8.96;100.00;99385.47;5609698;31;34329;-67
2023/04/02 01:02:00;;;;;;;;;;;;;;;9.06;100.00;99385.19;5609722;31;34568;-66
2023/04/02 01:05:13;;;;;;;;;;;;;;;9.17;100.00;99390.03;5609501;31;34570;-67
2023/04/02 01:08:35;;;;;;;;;;;;;;;9.10;100.00;99391.78;5608908;31;34406;-67
2023/04/02 01:11:42;;;;;;;;;;;;;;;8.97;100.00;99392.41;5608755;31;34502;-67
2023/04/02 01:14:50;;;;;;;;;;;;;;;8.98;100.00;99391.41;5609470;31;35688;-67
2023/04/02 01:18:17;;;;;;;;;;;;;;;9.01;100.00;99391.03;5608807;31;34155;-68
2023/04/02 01:21:27;;;;;;;;;;;;;;;9.00;100.00;99392.06;5609530;31;34217;-68
2023/04/02 01:24:37;;;;;;;;;;;;;;;8.96;100.00;99395.22;5608965;31;34977;-67
2023/04/02 01:27:52;;;;;;;;;;;;;;;8.96;100.00;99385.47;5596598;31;34800;-68
2023/04/02 01:31:00;;;;;;;;;;;;;;;8.99;100.00;99389.59;5609304;31;34199;-67
2023/04/02 01:34:08;;;;;;;;;;;;;;;9.01;100.00;99382.25;5609745;31;34160;-68
2023/04/02 01:37:21;;;;;;;;;;;;;;;9.02;100.00;99387.38;5609372;31;33367;-69
2023/04/02 01:40:34;;;;;;;;;;;;;;;8.98;100.00;99390.56;5609336;31;34356;-68
2023/04/02 01:43:46;;;;;;;;;;;;;;;8.99;100.00;99390.41;5609120;31;34539;-70
2023/04/02 01:46:54;;;;;;;;;;;;;;;8.97;100.00;99387.09;5609234;31;34803;-68
2023/04/02 01:50:11;;;;;;;;;;;;;;;8.91;100.00;99390.47;5609156;31;35068;-68
2023/04/02 01:53:21;;;;;;;;;;;;;;;8.98;100.00;99396.69;5609086;31;34961;-66
2023/04/02 01:56:29;;;;;;;;;;;;;;;9.02;100.00;99395.31;5609355;31;34257;-67
2023/04/02 01:59:37;;;;;;;;;;;;;;;9.06;100.00;99401.06;5608169;31;34876;-67
2023/04/02 02:02:48;;;;;;;;;;;;;;;9.04;100.00;99411.84;5608869;31;34903;-67
2023/04/02 02:05:57;;;;;;;;;;;;;;;9.00;100.00;99407.94;5608738;31;34649;-67
2023/04/02 02:09:06;;;;;;;;;;;;;;;9.04;100.00;99413.66;5608692;31;34385;-67
2023/04/02 02:12:13;;;;;;;;;;;;;;;9.07;100.00;99405.34;5607807;31;34718;-68
2023/04/02 02:15:22;;;;;;;;;;;;;;;9.08;100.00;99407.81;5607828;31;35164;-67
2023/04/02 02:18:33;;;;;;;;;;;;;;;9.00;100.00;99412.38;5608513;31;34986;-67
2023/04/02 02:21:44;;;;;;;;;;;;;;;9.01;100.00;99414.00;5607734;31;33308;-67
2023/04/02 02:24:52;;;;;;;;;;;;;;;8.95;100.00;99420.03;5608519;31;34863;-67
2023/04/02 02:28:21;;;;;;;;;;;;;;;8.98;100.00;99422.31;5608323;31;34255;-68
2023/04/02 02:31:31;;;;;;;;;;;;;;;8.89;100.00;99418.94;5608416;31;34376;-67
2023/04/02 02:34:40;;;;;;;;;;;;;;;8.89;100.00;99418.12;5608260;31;34875;-67
2023/04/02 02:37:55;;;;;;;;;;;;;;;8.78;100.00;99416.72;5610933;31;34780;-67
2023/04/02 02:41:14;;;;;;;;;;;;;;;8.84;100.00;99420.47;5610671;31;34240;-66
2023/04/02 02:44:25;;;;;;;;;;;;;;;8.82;100.00;99418.00;5609793;31;33775;-67
2023/04/02 02:47:35;;;;;;;;;;;;;;;8.75;100.00;99424.19;5610839;31;34056;-67
2023/04/02 02:50:43;;;;;;;;;;;;;;;8.68;100.00;99411.69;5610862;31;34808;-67
2023/04/02 02:53:53;;;;;;;;;;;;;;;8.66;100.00;99416.34;5610858;31;34184;-67
2023/04/02 02:57:05;;;;;;;;;;;;;;;8.70;100.00;99419.44;5610859;31;34282;-67
2023/04/02 03:00:15;;;;;;;;;;;;;;;8.75;100.00;99417.09;5610737;31;34302;-67
2023/04/02 03:03:25;;;;;;;;;;;;;;;8.73;100.00;99419.09;5610781;31;34317;-67
2023/04/02 03:06:35;;;;;;;;;;;;;;;8.73;100.00;99414.63;5610533;31;34318;-67
2023/04/02 03:10:04;;;;;;;;;;;;;;;8.73;100.00;99413.78;5610713;31;34289;-67
2023/04/02 03:13:22;;;;;;;;;;;;;;;8.68;100.00;99418.78;5610395;31;34174;-68
2023/04/02 03:16:37;;;;;;;;;;;;;;;8.63;100.00;99414.03;5610623;31;34733;-67
2023/04/02 03:20:00;;;;;;;;;;;;;;;8.57;100.00;99421.84;5610447;31;35103;-67
2023/04/02 03:23:17;;;;;;;;;;;;;;;8.53;100.00;99417.94;5610601;31;34369;-67
2023/04/02 03:26:34;;;;;;;;;;;;;;;8.51;100.00;99417.31;5609726;31;32499;-66
2023/04/02 03:30:02;;;;;;;;;;;;;;;8.52;100.00;99427.69;5609566;31;34096;-67
2023/04/02 03:33:29;;;;;;;;;;;;;;;8.59;100.00;99427.81;5610077;31;34446;-67
2023/04/02 03:36:45;;;;;;;;;;;;;;;8.61;100.00;99425.81;5610453;31;34789;-66
2023/04/02 03:40:01;;;;;;;;;;;;;;;8.63;100.00;99435.19;5610805;31;34195;-68
2023/04/02 03:43:14;;;;;;;;;;;;;;;8.64;100.00;99428.91;5609607;31;34789;-67
2023/04/02 03:46:23;;;;;;;;;;;;;;;8.58;100.00;99429.63;5609364;31;34281;-67
2023/04/02 03:49:33;;;;;;;;;;;;;;;8.50;100.00;99432.34;5610317;31;34828;-67
2023/04/02 03:52:41;;;;;;;;;;;;;;;8.55;100.00;99434.44;5610188;31;34534;-67
2023/04/02 03:55:50;;;;;;;;;;;;;;;8.44;100.00;99434.84;5610308;31;34743;-66
2023/04/02 03:59:05;;;;;;;;;;;;;;;8.48;100.00;99436.97;5610410;31;34367;-67
2023/04/02 04:02:18;;;;;;;;;;;;;;;8.44;100.00;99442.78;5609456;31;34659;-67
2023/04/02 04:05:28;;;;;;;;;;;;;;;8.38;100.00;99443.50;5610163;31;34931;-67
2023/04/02 04:08:53;;;;;;;;;;;;;;;8.47;100.00;99445.88;5610050;31;34883;-67
2023/04/02 04:12:22;;;;;;;;;;;;;;;8.49;100.00;99448.38;5610249;31;34380;-67
2023/04/02 04:15:30;;;;;;;;;;;;;;;8.64;100.00;99454.53;5590379;31;34881;-67
2023/04/02 04:18:43;;;;;;;;;;;;;;;8.72;100.00;99462.38;5590264;31;34394;-67
2023/04/02 04:21:55;;;;;;;;;;;;;;;8.73;100.00;99456.09;5590382;31;34232;-67
2023/04/02 04:25:05;;;;;;;;;;;;;;;8.67;100.00;99462.09;5576658;31;35120;-67
2023/04/02 04:28:26;;;;;;;;;;;;;;;8.62;100.00;99465.28;5577092;31;34243;-67
2023/04/02 04:31:54;;;;;;;;;;;;;;;8.54;100.00;99462.69;5576072;31;33775;-67
2023/04/02 04:35:07;;;;;;;;;;;;;;;8.50;100.00;99460.59;5590099;31;35038;-68
2023/04/02 04:38:20;;;;;;;;;;;;;;;8.56;100.00;99470.47;5590175;31;34790;-67
2023/04/02 04:41:33;;;;;;;;;;;;;;;8.46;100.00;99468.06;5590032;31;34370;-67
2023/04/02 04:45:00;;;;;;;;;;;;;;;8.48;100.00;99458.13;5576869;31;34251;-68
2023/04/02 04:48:15;;;;;;;;;;;;;;;8.46;100.00;99459.31;5590005;31;34864;-67
2023/04/02 04:51:32;;;;;;;;;;;;;;;8.40;100.00;99455.53;5577247;31;33595;-67
2023/04/02 04:54:41;;;;;;;;;;;;;;;8.32;100.00;99474.09;5590024;31;34356;-68
2023/04/02 04:57:49;;;;;;;;;;;;;;;8.41;100.00;99466.94;5589825;31;34574;-68
2023/04/02 05:01:04;;;;;;;;;;;;;;;8.49;100.00;99474.81;5589367;31;34305;-68
2023/04/02 05:04:37;;;;;;;;;;;;;;;8.58;100.00;99471.91;5589709;31;34442;-67
2023/04/02 05:07:51;;;;;;;;;;;;;;;8.70;100.00;99467.03;5589474;31;33771;-68
2023/04/02 05:11:03;;;;;;;;;;;;;;;8.85;100.00;99475.03;5589805;31;34169;-67
2023/04/02 05:14:26;;;;;;;;;;;;;;;9.04;100.00;99474.50;5582835;31;33675;-68
2023/04/02 05:17:40;;;;;;;;;;;;;;;9.14;100.00;99473.25;5609215;31;34263;-68
2023/04/02 05:20:58;;;;;;;;;;;;;;;9.28;100.00;99478.75;5608782;31;34236;-68
2023/04/02 05:24:25;;;;;;;;;;;;;;;9.47;100.00;99494.91;5609337;31;34378;-68
2023/04/02 05:27:45;;;;;;;;;;;;;;;9.59;100.00;99496.09;5607615;31;33427;-67
2023/04/02 05:30:59;;;;;;;;;;;;;;;9.76;100.00;99495.91;5609156;31;34368;-68
2023/04/02 05:34:07;;;;;;;;;;;;;;;9.80;100.00;99492.69;5609322;31;34314;-67
2023/04/02 05:37:18;;;;;;;;;;;;;;;9.86;100.00;99491.16;5609481;31;34149;-67
2023/04/02 05:40:32;;;;;;;;;;;;;;;9.76;100.00;99495.91;5609223;31;34400;-67
2023/04/02 05:43:38;;;;;;;;;;;;;;;9.95;100.00;99504.09;5608642;31;34133;-67
2023/04/02 05:47:02;;;;;;;;;;;;;;;10.13;100.00;99513.47;5608990;31;34252;-68
2023/04/02 05:50:21;;;;;;;;;;;;;;;10.17;100.00;99507.66;5608253;31;34930;-67
2023/04/02 05:53:35;;;;;;;;;;;;;;;10.37;100.00;99514.00;5608962;31;34379;-67
2023/04/02 05:56:47;;;;;;;;;;;;;;;10.48;100.00;99517.16;5608944;31;34316;-67
2023/04/02 05:59:55;;;;;;;;;;;;;;;10.30;100.00;99517.59;5608915;31;34343;-68
2023/04/02 06:03:16;;;;;;;;;;;;;;;10.29;100.00;99522.06;5608960;31;35061;-68
2023/04/02 06:06:44;;;;;;;;;;;;;;;10.38;100.00;99520.13;5608643;31;34277;-67
2023/04/02 06:10:06;;;;;;;;;;;;;;;10.52;100.00;99524.56;5609119;31;34142;-67
2023/04/02 06:13:16;;;;;;;;;;;;;;;10.65;100.00;99521.25;5610786;31;34189;-67
2023/04/02 06:16:24;;;;;;;;;;;;;;;10.76;100.00;99528.66;5611065;31;34187;-66
2023/04/02 06:19:36;;;;;;;;;;;;;;;10.91;100.00;99518.81;5610995;31;34357;-67
2023/04/02 06:22:51;;;;;;;;;;;;;;;11.11;100.00;99519.00;5609967;31;33338;-69
2023/04/02 06:25:58;;;;;;;;;;;;;;;11.18;100.00;99520.66;5610384;31;34195;-66
2023/04/02 06:29:10;;;;;;;;;;;;;;;11.31;100.00;99526.09;5610961;31;32473;-67
2023/04/02 06:32:25;;;;;;;;;;;;;;;11.63;100.00;99532.62;5610271;31;34818;-66
2023/04/02 06:35:34;;;;;;;;;;;;;;;11.80;100.00;99529.72;5597642;31;33909;-67
2023/04/02 06:38:46;;;;;;;;;;;;;;;12.53;99.05;99535.13;5610716;31;33824;-68
2023/04/02 06:42:04;;;;;;;;;;;;;;;12.91;96.13;99537.25;5611011;31;34928;-67
2023/04/02 06:45:28;;;;;;;;;;;;;;;13.65;90.13;99542.38;5610857;31;34306;-67
2023/04/02 06:48:37;;;;;;;;;;;;;;;12.81;92.02;99542.13;5610670;31;34331;-67
2023/04/02 06:51:47;;;;;;;;;;;;;;;13.78;84.59;99547.69;5610109;31;34867;-67
2023/04/02 06:54:58;;;;;;;;;;;;;;;14.53;79.57;99544.34;5610604;31;34228;-68
2023/04/02 06:58:12;;;;;;;;;;;;;;;14.73;78.00;99547.72;5609688;31;34606;-68
2023/04/02 07:01:22;;;;;;;;;;;;;;;14.40;77.58;99551.59;5596540;31;33292;-68
2023/04/02 07:04:32;;;;;;;;;;;;;;;12.85;88.79;99549.50;5609857;31;34365;-67
2023/04/02 07:07:42;;;;;;;;;;;;;;;13.28;89.80;99551.81;5609902;31;35093;-70
2023/04/02 07:10:52;;;;;;;;;;;;;;;13.48;83.75;99550.78;5610218;31;34268;-68
2023/04/02 07:14:02;;;;;;;;;;;;;;;13.44;84.00;99546.91;5609979;31;34820;-68
2023/04/02 07:17:15;;;;;;;;;;;;;;;13.87;81.29;99568.56;5609617;31;33743;-68
2023/04/02 07:20:26;;;;;;;;;;;;;;;14.45;79.66;99557.94;5609242;31;34387;-68
2023/04/02 07:23:34;;;;;;;;;;;;;;;14.23;79.52;99568.03;5608630;31;34425;-69
2023/04/02 07:26:40;;;;;;;;;;;;;;;13.63;82.64;99563.06;5608508;31;33118;-69
2023/04/02 07:29:48;;;;;;;;;;;;;;;13.27;86.54;99560.81;5609626;31;33827;-69
2023/04/02 07:32:57;;;;;;;;;;;;;;;12.93;89.10;99557.28;5609671;31;34280;-67
2023/04/02 07:36:05;;;;;;;;;;;;;;;12.88;91.69;99572.22;5608471;31;32845;-69
2023/04/02 07:39:12;;;;;;;;;;;;;;;13.18;87.15;99586.03;5609702;31;34931;-68
2023/04/02 07:42:19;;;;;;;;;;;;;;;13.33;87.49;99576.81;5608938;31;34860;-67
2023/04/02 07:45:25;;;;;;;;;;;;;;;13.82;86.57;99575.56;5609176;31;34513;-67
2023/04/02 07:48:32;;;;;;;;;;;;;;;14.22;80.70;99586.94;5609806;31;34599;-69
2023/04/02 07:51:39;;;;;;;;;;;;;;;13.29;85.21;99585.44;5609743;31;34263;-67
2023/04/02 07:54:48;;;;;;;;;;;;;;;13.53;84.61;99591.97;5609773;31;34572;-67
2023/04/02 07:57:58;;;;;;;;;;;;;;;13.94;83.37;99601.34;5608513;31;34948;-67
2023/04/02 08:01:13;;;;;;;;;;;;;;;13.80;82.91;99602.41;5608085;31;34899;-67
2023/04/02 08:04:21;;;;;;;;;;;;;;;13.68;84.65;99593.41;5608557;31;33384;-67
2023/04/02 08:07:30;;;;;;;;;;;;;;;14.04;81.35;99603.59;5609270;31;34998;-67
2023/04/02 08:10:37;;;;;;;;;;;;;;;14.25;79.78;99608.66;5609169;31;34364;-68
2023/04/02 08:13:44;;;;;;;;;;;;;;;15.22;75.29;99607.59;5609489;31;34802;-68
2023/04/02 08:16:52;;;;;;;;;;;;;;;15.39;73.12;99608.72;5609706;31;34992;-67
2023/04/02 08:20:01;;;;;;;;;;;;;;;14.41;79.01;99619.94;5609465;31;34413;-68
2023/04/02 08:23:16;;;;;;;;;;;;;;;13.71;85.90;99614.31;5609191;31;34286;-67
2023/04/02 08:26:23;;;;;;;;;;;;;;;13.72;84.37;99631.94;5609791;31;34879;-69
2023/04/02 08:29:32;;;;;;;;;;;;;;;13.66;84.45;99613.28;5609241;31;32438;-68
2023/04/02 08:32:40;;;;;;;;;;;;;;;13.79;86.03;99622.13;5608922;31;34453;-68
2023/04/02 08:35:50;;;;;;;;;;;;;;;14.10;83.05;99632.09;5609354;31;34278;-68
2023/04/02 08:38:58;;;;;;;;;;;;;;;14.15;82.29;99632.28;5609770;31;34462;-68
2023/04/02 08:42:28;;;;;;;;;;;;;;;14.54;79.06;99630.56;5609644;31;34640;-68
2023/04/02 08:45:40;;;;;;;;;;;;;;;16.73;68.70;99632.09;5609947;31;34960;-69
2023/04/02 08:48:55;;;;;;;;;;;;;;;18.87;57.52;99632.38;5609480;31;34288;-69
2023/04/02 08:52:05;;;;;;;;;;;;;;;19.20;55.03;99626.25;5609433;31;34255;-69
2023/04/02 08:55:33;;;;;;;;;;;;;;;19.64;52.42;99635.37;5609684;31;34880;-68
2023/04/02 08:58:43;;;;;;;;;;;;;;;19.48;52.32;99637.00;5609573;31;34442;-69
2023/04/02 09:01:55;;;;;;;;;;;;;;;19.58;52.84;99633.66;5608413;31;32914;-69
2023/04/02 09:05:06;;;;;;;;;;;;;;;20.09;51.75;99634.44;5608312;31;33940;-69
2023/04/02 09:08:15;;;;;;;;;;;;;;;17.43;59.05;99635.03;5609321;31;34956;-68
2023/04/02 09:11:21;;;;;;;;;;;;;;;16.50;63.56;99638.09;5608217;31;33741;-68
2023/04/02 09:14:42;;;;;;;;;;;;;;;15.68;68.91;99634.00;5608296;31;34437;-69
2023/04/02 09:17:56;;;;;;;;;;;;;;;15.97;68.58;99644.03;5609333;31;34030;-69
2023/04/02 09:21:12;;;;;;;;;;;;;;;15.70;69.17;99636.44;5608585;31;34821;-68
2023/04/02 09:24:19;;;;;;;;;;;;;;;15.50;70.32;99633.91;5609366;31;34142;-69
2023/04/02 09:27:30;;;;;;;;;;;;;;;15.18;73.33;99639.28;5608924;31;34186;-68
2023/04/02 09:30:51;;;;;;;;;;;;;;;15.37;73.31;99637.50;5609173;31;34946;-69
2023/04/02 09:33:56;;;;;;;;;;;;;;;15.42;72.42;99639.53;5609080;31;34882;-68
2023/04/02 09:37:13;;;;;;;;;;;;;;;14.64;77.40;99652.28;5608088;31;34137;-68
2023/04/02 09:40:24;;;;;;;;;;;;;;;14.74;76.88;99645.47;5609176;31;33872;-68
2023/04/02 09:43:38;;;;;;;;;;;;;;;14.67;79.16;99665.19;5595784;31;34361;-69
2023/04/02 09:46:47;;;;;;;;;;;;;;;14.57;78.06;99667.53;5608528;31;35056;-68
2023/04/02 09:49:54;;;;;;;;;;;;;;;14.34;80.06;99665.28;5608716;31;34983;-68
2023/04/02 09:53:23;;;;;;;;;;;;;;;14.85;77.25;99661.88;5608965;31;34395;-69
2023/04/02 09:56:37;;;;;;;;;;;;;;;15.18;74.79;99667.84;5600346;31;34905;-67
2023/04/02 10:00:07;;;;;;;;;;;;;;;14.91;79.17;99661.81;5608158;31;34274;-69
2023/04/02 10:03:28;;;;;;;;;;;;;;;14.99;75.44;99660.75;5608556;31;34249;-66
2023/04/02 10:06:36;;;;;;;;;;;;;;;15.00;75.91;99675.75;5608629;31;35061;-67
2023/04/02 10:09:56;;;;;;;;;;;;;;;14.87;77.10;99665.13;5608619;31;34175;-69
2023/04/02 10:13:06;;;;;;;;;;;;;;;15.17;75.17;99674.22;5607652;31;35054;-69
2023/04/02 10:16:21;;;;;;;;;;;;;;;15.25;75.05;99668.59;5608711;31;34842;-69
2023/04/02 10:19:39;;;;;;;;;;;;;;;14.80;76.27;99678.53;5607731;31;34572;-68
2023/04/02 10:22:48;;;;;;;;;;;;;;;14.86;75.41;99666.19;5608367;31;34994;-69
2023/04/02 10:26:05;;;;;;;;;;;;;;;14.92;74.48;99665.31;5608132;31;34243;-70
2023/04/02 10:29:23;;;;;;;;;;;;;;;14.75;76.12;99665.00;5607943;31;34423;-67
2023/04/02 10:32:28;;;;;;;;;;;;;;;14.76;75.16;99661.28;5608325;31;34457;-68
2023/04/02 10:36:02;;;;;;;;;;;;;;;15.55;71.98;99672.34;5607324;31;34630;-67
2023/04/02 10:39:35;;;;;;;;;;;;;;;15.55;70.72;99655.47;5607769;31;34003;-67
2023/04/02 10:43:12;;;;;;;;;;;;;;;15.62;70.45;99658.94;5607873;31;34239;-69
2023/04/02 10:46:31;;;;;;;;;;;;;;;15.85;70.12;99667.16;5607677;31;34436;-68
2023/04/02 10:49:46;;;;;;;;;;;;;;;15.76;69.78;99656.97;5607446;31;34238;-68
2023/04/02 10:53:00;;;;;;;;;;;;;;;16.58;66.36;99659.25;5607451;31;34457;-69
2023/04/02 10:56:09;;;;;;;;;;;;;;;16.43;66.09;99648.88;5606946;31;34151;-69
2023/04/02 10:59:25;;;;;;;;;;;;;;;17.41;61.08;99659.38;5609168;31;33818;-68
2023/04/02 11:02:41;;;;;;;;;;;;;;;17.30;61.85;99644.88;5609537;31;34882;-68
2023/04/02 11:05:50;;;;;;;;;;;;;;;18.84;57.85;99648.97;5610302;31;34884;-68
2023/04/02 11:09:03;;;;;;;;;;;;;;;19.68;53.12;99662.59;5610358;31;34381;-67
2023/04/02 11:12:22;;;;;;;;;;;;;;;19.93;50.27;99647.69;5609214;31;33814;-70
2023/04/02 11:15:28;;;;;;;;;;;;;;;18.93;53.42;99665.50;5610280;31;34447;-68
2023/04/02 11:18:37;;;;;;;;;;;;;;;17.55;54.29;99650.06;5609449;31;34326;-68
2023/04/02 11:21:42;;;;;;;;;;;;;;;18.46;52.65;99657.56;5610212;31;34190;-68
2023/04/02 11:25:03;;;;;;;;;;;;;;;18.59;51.34;99665.37;5609954;31;33178;-68
2023/04/02 11:28:13;;;;;;;;;;;;;;;18.41;50.72;99653.94;5609900;31;34319;-67
2023/04/02 11:31:21;;;;;;;;;;;;;;;18.73;50.53;99649.84;5610005;31;34172;-68
2023/04/02 11:34:46;;;;;;;;;;;;;;;18.60;50.74;99648.22;5609300;31;34272;-68
2023/04/02 11:38:09;;;;;;;;;;;;;;;21.11;44.70;99637.31;5609221;31;35158;-69
2023/04/02 11:41:35;;;;;;;;;;;;;;;24.16;38.63;99638.38;5609310;31;34782;-69
2023/04/02 11:44:41;;;;;;;;;;;;;;;24.71;36.61;99639.31;5609273;31;34930;-69
2023/04/02 11:47:58;;;;;;;;;;;;;;;25.18;35.40;99646.97;5596318;31;34949;-70
2023/04/02 11:51:21;;;;;;;;;;;;;;;25.53;33.42;99636.66;5610029;31;34274;-69
2023/04/02 11:54:36;;;;;;;;;;;;;;;24.49;35.38;99637.81;5609914;31;34852;-69
2023/04/02 11:57:55;;;;;;;;;;;;;;;24.87;35.97;99644.44;5609182;31;34508;-69
2023/04/02 12:01:01;;;;;;;;;;;;;;;24.09;36.99;99640.59;5609809;31;34495;-69
2023/04/02 12:04:10;;;;;;;;;;;;;;;24.38;35.63;99644.34;5609938;31;34266;-70
2023/04/02 12:07:25;;;;;;;;;;;;;;;22.18;38.72;99639.06;5609725;31;34315;-69
2023/04/02 12:10:33;;;;;;;;;;;;;;;24.53;35.05;99630.72;5609590;31;34259;-69
2023/04/02 12:13:40;;;;;;;;;;;;;;;24.75;34.42;99632.25;5609610;31;33750;-69
2023/04/02 12:16:47;;;;;;;;;;;;;;;24.24;35.34;99625.13;5609206;31;34851;-69
2023/04/02 12:19:54;;;;;;;;;;;;;;;26.18;32.27;99634.47;5609106;31;34561;-68
2023/04/02 12:23:01;;;;;;;;;;;;;;;26.36;31.18;99625.59;5609059;31;34252;-68
2023/04/02 12:26:22;;;;;;;;;;;;;;;26.98;30.96;99625.63;5609776;31;34268;-68
2023/04/02 12:29:32;;;;;;;;;;;;;;;25.34;32.88;99622.16;5609506;31;35004;-70
2023/04/02 12:32:40;;;;;;;;;;;;;;;26.55;31.68;99620.19;5608920;31;33802;-69
2023/04/02 12:35:54;;;;;;;;;;;;;;;26.28;32.90;99615.38;5609202;31;34720;-68
2023/04/02 12:39:00;;;;;;;;;;;;;;;23.80;36.67;99607.84;5609378;31;34258;-69
2023/04/02 12:42:25;;;;;;;;;;;;;;;21.08;42.84;99618.97;5608411;31;34202;-68
2023/04/02 12:45:33;;;;;;;;;;;;;;;23.11;39.15;99604.81;5608421;31;34809;-68
2023/04/02 12:48:41;;;;;;;;;;;;;;;23.18;38.22;99611.63;5609053;31;34339;-68
2023/04/02 12:51:48;;;;;;;;;;;;;;;24.42;35.67;99606.63;5609043;31;34452;-68
2023/04/02 12:54:58;;;;;;;;;;;;;;;25.21;34.83;99601.09;5595775;31;34237;-67
2023/04/02 12:58:23;;;;;;;;;;;;;;;23.24;36.48;99605.09;5608910;31;34353;-68
2023/04/02 13:01:32;;;;;;;;;;;;;;;21.08;41.32;99602.78;5608269;31;34843;-69
2023/04/02 13:04:50;;;;;;;;;;;;;;;23.24;38.19;99596.16;5609022;31;34864;-69
2023/04/02 13:07:59;;;;;;;;;;;;;;;25.74;34.40;99599.31;5608273;31;34453;-67
2023/04/02 13:11:05;;;;;;;;;;;;;;;25.04;34.09;99606.06;5608826;31;34336;-68
2023/04/02 13:14:17;;;;;;;;;;;;;;;24.99;33.87;99615.06;5608727;31;34364;-69
2023/04/02 13:17:36;;;;;;;;;;;;;;;23.44;36.69;99606.19;5608794;31;34829;-69
2023/04/02 13:20:55;;;;;;;;;;;;;;;26.73;32.02;99608.53;5608001;31;34123;-69
2023/04/02 13:24:04;;;;;;;;;;;;;;;25.37;33.86;99613.44;5609221;31;34298;-68
2023/04/02 13:27:12;;;;;;;;;;;;;;;24.47;35.01;99610.13;5607935;31;33602;-68
2023/04/02 13:30:21;;;;;;;;;;;;;;;26.65;31.45;99608.38;5595188;31;34681;-69
2023/04/02 13:33:31;;;;;;;;;;;;;;;28.50;29.00;99610.25;5608542;31;34498;-69
2023/04/02 13:36:37;;;;;;;;;;;;;;;26.15;31.64;99602.41;5595150;31;34369;-69
2023/04/02 13:39:43;;;;;;;;;;;;;;;25.64;33.04;99617.59;5608067;31;34723;-68
2023/04/02 13:42:49;;;;;;;;;;;;;;;24.32;33.44;99604.78;5595275;31;33067;-68
2023/04/02 13:45:53;;;;;;;;;;;;;;;21.16;39.30;99619.34;5609091;31;34860;-70
2023/04/02 13:48:58;;;;;;;;;;;;;;;24.01;33.97;99605.94;5609076;31;34243;-69
2023/04/02 13:52:12;;;;;;;;;;;;;;;26.04;31.21;99610.97;5608327;31;34204;-69
2023/04/02 13:55:26;;;;;;;;;;;;;;;25.68;31.02;99610.50;5608220;31;34732;-69
2023/04/02 13:58:34;;;;;;;;;;;;;;;25.85;30.76;99608.19;5609117;31;34239;-69
2023/04/02 14:01:42;;;;;;;;;;;;;;;26.35;30.31;99601.41;5609242;31;34872;-69
2023/04/02 14:04:53;;;;;;;;;;;;;;;27.29;29.03;99605.03;5607383;31;34054;-69
2023/04/02 14:07:58;;;;;;;;;;;;;;;26.63;29.64;99605.94;5608596;31;35172;-69
2023/04/02 14:11:23;;;;;;;;;;;;;;;25.28;31.46;99595.31;5607269;31;34923;-69
2023/04/02 14:14:45;;;;;;;;;;;;;;;23.34;33.60;99599.69;5608569;31;35011;-69
2023/04/02 14:18:08;;;;;;;;;;;;;;;24.79;31.44;99585.28;5608526;31;34531;-70
2023/04/02 14:21:32;;;;;;;;;;;;;;;22.62;35.64;99597.09;5607288;31;32991;-68
2023/04/02 14:24:47;;;;;;;;;;;;;;;20.96;38.69;99596.75;5608175;31;34130;-68
2023/04/02 14:27:59;;;;;;;;;;;;;;;18.66;43.90;99606.97;5607519;31;34861;-69
2023/04/02 14:31:17;;;;;;;;;;;;;;;18.41;42.66;99610.97;5607676;31;34206;-68
2023/04/02 14:34:49;;;;;;;;;;;;;;;17.51;46.63;99599.81;5610101;31;34608;-68
2023/04/02 14:37:59;;;;;;;;;;;;;;;16.25;52.18;99626.66;5589050;31;33558;-69
2023/04/02 14:41:23;;;;;;;;;;;;;;;16.15;54.98;99621.00;5609966;31;34861;-69
2023/04/02 14:44:35;;;;;;;;;;;;;;;16.08;56.13;99634.44;5609980;31;34737;-69
2023/04/02 14:47:48;;;;;;;;;;;;;;;16.49;55.17;99647.19;5610381;31;34338;-68
2023/04/02 14:50:57;;;;;;;;;;;;;;;15.49;56.77;99664.38;5597143;31;34720;-68
2023/04/02 14:54:04;;;;;;;;;;;;;;;14.76;60.03;99654.06;5596991;31;33369;-68
2023/04/02 14:57:11;;;;;;;;;;;;;;;14.28;65.94;99672.28;5610940;31;34273;-68
2023/04/02 15:00:27;;;;;;;;;;;;;;;13.99;69.97;99674.59;5610583;31;34125;-68
2023/04/02 15:03:42;;;;;;;;;;;;;;;13.56;73.75;99674.19;5610452;31;34818;-68
2023/04/02 15:06:51;;;;;;;;;;;;;;;12.95;82.03;99687.56;5610601;31;34292;-68
2023/04/02 15:10:18;;;;;;;;;;;;;;;12.70;92.43;99689.09;5610422;31;34349;-68
2023/04/02 15:13:27;;;;;;;;;;;;;;;12.36;99.44;99687.28;5610075;31;34993;-68
2023/04/02 15:16:35;;;;;;;;;;;;;;;12.22;100.00;99698.84;5609493;31;33314;-68
2023/04/02 15:19:40;;;;;;;;;;;;;;;11.94;100.00;99715.66;5610524;31;34045;-67
2023/04/02 15:23:04;;;;;;;;;;;;;;;11.87;100.00;99727.22;5610325;31;34272;-68
2023/04/02 15:26:10;;;;;;;;;;;;;;;11.48;100.00;99740.94;5610401;31;34155;-67
2023/04/02 15:29:40;;;;;;;;;;;;;;;10.55;100.00;99731.06;5610422;31;34276;-69
2023/04/02 15:32:44;;;;;;;;;;;;;;;10.12;100.00;99723.88;5610758;31;33746;-69
2023/04/02 15:36:11;;;;;;;;;;;;;;;9.86;100.00;99727.75;5596939;31;34347;-68
2023/04/02 15:39:49;;;;;;;;;;;;;;;9.61;100.00;99721.00;5609700;31;34922;-67
2023/04/02 15:42:56;;;;;;;;;;;;;;;9.71;100.00;99731.34;5577333;31;34671;-70
2023/04/02 15:46:08;;;;;;;;;;;;;;;9.64;100.00;99725.09;5609535;31;35781;-69
2023/04/02 15:49:40;;;;;;;;;;;;;;;9.49;100.00;99722.41;5609670;31;34273;-68
2023/04/02 15:53:01;;;;;;;;;;;;;;;9.47;100.00;99713.84;5610357;31;35457;-68
2023/04/02 15:56:15;;;;;;;;;;;;;;;9.56;100.00;99710.13;5609613;31;34193;-68
2023/04/02 15:59:48;;;;;;;;;;;;;;;9.87;100.00;99712.69;5610291;31;34590;-68
2023/04/02 16:03:16;;;;;;;;;;;;;;;10.04;100.00;99715.00;5610205;31;34514;-68
2023/04/02 16:06:26;;;;;;;;;;;;;;;10.20;100.00;99713.22;5609424;31;34453;-68
2023/04/02 16:09:43;;;;;;;;;;;;;;;10.35;100.00;99706.09;5610084;31;34218;-68
2023/04/02 16:12:52;;;;;;;;;;;;;;;10.73;100.00;99712.13;5609262;31;33773;-68
2023/04/02 16:16:06;;;;;;;;;;;;;;;11.09;100.00;99704.97;5609810;31;35060;-67
2023/04/02 16:19:31;;;;;;;;;;;;;;;11.06;100.00;99709.84;5609783;31;34123;-68
2023/04/02 16:22:36;;;;;;;;;;;;;;;11.33;100.00;99722.38;5608960;31;34301;-67
2023/04/02 16:25:56;;;;;;;;;;;;;;;11.36;100.00;99723.88;5609924;31;34696;-67
2023/04/02 16:29:18;;;;;;;;;;;;;;;11.18;100.00;99724.28;5609039;31;34830;-67
2023/04/02 16:32:25;;;;;;;;;;;;;;;11.09;100.00;99728.88;5609306;31;34914;-66
2023/04/02 16:35:44;;;;;;;;;;;;;;;11.13;100.00;99735.47;5608754;31;34159;-67
2023/04/02 16:39:14;;;;;;;;;;;;;;;11.32;100.00;99749.97;5609446;31;34336;-67
2023/04/02 16:42:30;;;;;;;;;;;;;;;11.31;100.00;99750.97;5609274;31;34918;-67
2023/04/02 16:45:41;;;;;;;;;;;;;;;11.38;100.00;99756.34;5608955;31;34190;-67